Pagrindinis puslapis
METAR-TAF:

METAR-TAF

Oro uostai :

Port Heiden, Aliaska, Jungtinės Amerikos Valstijos

platuma: 56-57N, ilguma: 158-38W, Aukštis: 29 m

Dabartinis oras

Ataskaita buvo paskelbta 17 minutes, ne 04:56 UTC
Vėjas 16 kt iš Vakarų su gūsio iki 22 kt
Temperatūra 11°C
Drėgmė 94%
Slėgis 1006 hPa
Matomumas: 16.1 km
Mažai debesys ne aukštis 400 ft
Su prošvaistėmis ne aukštis 800 ft
Apsiniaukę ne aukštis 2100 ft

METAR: PAPH 160456Z AUTO 27016G22KT 10SM FEW004 BKN008 OVC021 11/10 A2970 RMK AO2 PK WND 28026/0357 RAB30E47 CIG 007V014 SLP056 P0000 T01110100

Laikas: 21:13 (05:13 UTC)


TAF: trūkstamas

Orai ataskaitas ir orų prognozės (METAR, TAF).

turimą stotys yra geltonos ir raudonos taškus žemėlapyje.

Perkelti pele per norėdami pamatyti stoties vardą.

Tada spustelėkite, norėdami matyti oro stebėjimo ir prognozės.

Norėdami pakeisti žemėlapį: spustelėkite ant žalios mygtukų su juodo kryžiaus žemyn,; žalią mygtuką su brūkšneliu, jei norite nutolinti; arba žalių rodyklių gretimoms žemėlapius.


METAR-TAF: